Time;durP1;ratioP1;P1;durP2;ratioP2;P2;SDS_P1;SDS_P2;PMS_P1;PMS_P2;Temp;Humidity;BMP_temperature;BMP_pressure;BME280_temperature;BME280_humidity;BME280_pressure;Samples;Min_cycle;Max_cycle;Signal;HPM_P1;HPM_P2
2022/03/11 01:45:19;;;;;;;6.17;4.67;;;;;;;0.77;46.33;95775.78;4914396;29;20252;-79
2022/03/11 01:51:27;;;;;;;;;;;;;;;;;;;;;
2022/03/11 02:01:07;;;;;;;7.30;5.03;;;;;;;0.51;47.67;95747.34;4831012;29;20196;-78
2022/03/11 02:04:07;;;;;;;10.43;4.57;;;;;;;0.55;47.89;95748.84;4787262;29;20248;-78
2022/03/11 02:10:24;;;;;;;7.33;4.67;;;;;;;0.63;47.47;95738.19;4790885;29;20347;-80
2022/03/11 02:13:13;;;;;;;5.33;4.03;;;;;;;0.68;47.66;95732.81;4784937;30;20272;-78
2022/03/11 02:16:09;;;;;;;9.07;4.80;;;;;;;0.68;47.55;95731.09;4775178;30;20302;-78
2022/03/11 02:18:49;;;;;;;13.83;5.03;;;;;;;0.75;47.38;95732.41;4774531;30;20202;-77
2022/03/11 02:21:42;;;;;;;7.53;4.63;;;;;;;0.72;48.13;95722.38;4781523;29;20196;-79
2022/03/11 02:24:22;;;;;;;8.13;5.20;;;;;;;0.81;48.30;95729.53;4812203;29;20220;-79
2022/03/11 02:26:50;;;;;;;8.23;5.30;;;;;;;0.86;48.63;95726.72;4790382;29;20228;-80
2022/03/11 02:29:27;;;;;;;9.40;6.10;;;;;;;0.87;49.18;95735.19;4805046;29;20227;-79
2022/03/11 02:31:56;;;;;;;7.73;5.57;;;;;;;0.79;49.77;95736.44;4790465;29;20276;-78
2022/03/11 02:38:21;;;;;;;10.07;5.80;;;;;;;0.60;50.08;95734.97;4860317;29;20234;-79
2022/03/11 02:40:49;;;;;;;7.90;5.43;;;;;;;0.68;49.72;95738.75;4860823;29;20237;-79
2022/03/11 02:43:34;;;;;;;10.37;5.47;;;;;;;0.59;49.63;95735.88;4846229;29;20751;-79
2022/03/11 02:46:04;;;;;;;7.50;4.97;;;;;;;0.50;49.43;95732.91;4860843;29;20310;-79
2022/03/11 02:48:54;;;;;;;9.03;5.40;;;;;;;0.55;49.59;95728.38;4847979;29;20241;-79
2022/03/11 02:51:30;;;;;;;10.47;5.60;;;;;;;0.48;49.82;95731.34;4902513;29;20194;-78
2022/03/11 02:54:08;;;;;;;12.23;6.33;;;;;;;0.34;50.15;95721.84;4886412;29;20257;-78
2022/03/11 02:56:56;;;;;;;8.13;5.40;;;;;;;0.35;50.23;95717.56;4918611;29;20194;-78
2022/03/11 02:59:26;;;;;;;9.27;5.53;;;;;;;0.30;50.39;95710.16;4887800;29;20192;-78
2022/03/11 03:02:04;;;;;;;10.07;6.13;;;;;;;0.23;50.65;95716.50;4902126;29;20241;-79
2022/03/11 03:05:01;;;;;;;7.90;5.53;;;;;;;0.20;50.42;95714.13;4886555;29;20280;-79
2022/03/11 03:07:27;;;;;;;14.53;6.57;;;;;;;0.14;50.83;95705.03;4886723;29;20701;-77
2022/03/11 03:09:58;;;;;;;10.87;5.90;;;;;;;0.08;50.63;95700.25;4901984;29;20233;-78
2022/03/11 03:12:24;;;;;;;12.23;6.50;;;;;;;0.14;51.16;95710.13;4892060;29;20187;-79
2022/03/11 03:15:19;;;;;;;9.50;6.30;;;;;;;0.09;51.16;95707.03;4956175;28;20274;-78
2022/03/11 03:18:07;;;;;;;11.03;6.50;;;;;;;0.05;51.31;95708.06;4956707;28;20207;-78
2022/03/11 03:20:50;;;;;;;14.40;6.87;;;;;;;-0.07;51.89;95706.16;4955678;28;20593;-79
2022/03/11 03:23:37;;;;;;;11.07;6.70;;;;;;;-0.10;51.81;95708.84;4940523;28;20206;-79
2022/03/11 03:26:19;;;;;;;9.20;6.20;;;;;;;-0.16;52.47;95704.09;4957194;28;20214;-79
2022/03/11 03:28:57;;;;;;;10.23;5.87;;;;;;;-0.14;52.39;95705.66;4956256;28;20205;-78
2022/03/11 03:31:59;;;;;;;;;;;;;;;;;;;;;
2022/03/11 03:34:41;;;;;;;11.43;6.20;;;;;;;-0.11;52.77;95697.00;4955920;28;20211;-79
2022/03/11 03:37:41;;;;;;;10.50;6.40;;;;;;;-0.12;52.77;95697.91;4955039;28;20212;-78
2022/03/11 03:40:22;;;;;;;11.43;6.57;;;;;;;-0.06;52.91;95702.72;4956781;28;20188;-78
2022/03/11 03:43:23;;;;;;;12.10;6.17;;;;;;;-0.18;52.95;95701.59;4955846;28;20239;-79
2022/03/11 03:46:23;;;;;;;10.53;6.67;;;;;;;-0.23;53.43;95693.38;4881284;29;20256;-78
2022/03/11 03:52:33;;;;;;;9.60;6.40;;;;;;;-0.37;54.32;95703.44;4854279;29;20262;-78
2022/03/11 03:55:37;;;;;;;;;;;;;;;;;;;;;
2022/03/11 04:02:02;;;;;;;11.20;6.80;;;;;;;-0.42;55.47;95695.22;4878644;29;20217;-79
2022/03/11 04:05:21;;;;;;;10.30;6.87;;;;;;;-0.31;56.23;95696.31;4822688;29;20225;-79
2022/03/11 04:08:52;;;;;;;10.07;6.53;;;;;;;-0.34;56.87;95690.53;4822107;29;20260;-79
2022/03/11 04:14:47;;;;;;;12.87;7.10;;;;;;;-0.31;56.94;95681.00;4779432;30;20612;-76
2022/03/11 04:17:58;;;;;;;10.53;7.60;;;;;;;-0.33;57.51;95684.53;4767084;30;20200;-77
2022/03/11 04:21:04;;;;;;;11.80;7.97;;;;;;;-0.30;57.28;95687.75;4770787;29;20787;-77
2022/03/11 04:24:18;;;;;;;11.23;7.63;;;;;;;-0.30;57.69;95690.28;4803402;29;20364;-77
2022/03/11 04:27:13;;;;;;;12.50;7.57;;;;;;;-0.34;58.01;95696.47;4788241;29;20606;-76
2022/03/11 04:30:54;;;;;;;9.90;7.30;;;;;;;-0.41;57.95;95696.84;4789109;29;20200;-79
2022/03/11 04:33:33;;;;;;;11.83;7.03;;;;;;;-0.49;58.42;95686.22;4839320;23;20260;-76
2022/03/11 04:36:38;;;;;;;12.20;7.80;;;;;;;-0.50;58.60;95687.13;4952197;28;20573;-76
2022/03/11 04:39:45;;;;;;;13.00;7.20;;;;;;;-0.61;58.96;95685.09;4876465;29;20737;-76
2022/03/11 04:43:03;;;;;;;12.73;7.37;;;;;;;-0.55;59.33;95684.78;4894275;29;20196;-78
2022/03/11 04:48:41;;;;;;;12.73;6.93;;;;;;;-0.57;59.36;95684.03;4886597;29;20192;-78
2022/03/11 04:53:56;;;;;;;10.43;7.13;;;;;;;-0.51;59.15;95691.41;4895836;29;20223;-77
2022/03/11 04:56:21;;;;;;;13.17;7.73;;;;;;;-0.57;59.22;95681.50;4861240;29;20203;-77
2022/03/11 04:58:46;;;;;;;10.23;7.47;;;;;;;-0.50;59.11;95682.00;4857438;29;20199;-77
2022/03/11 05:01:12;;;;;;;11.60;7.83;;;;;;;-0.57;58.80;95684.88;4858765;29;20205;-77
2022/03/11 05:03:37;;;;;;;10.33;7.10;;;;;;;-0.55;59.35;95687.34;4843965;29;20720;-79
2022/03/11 05:06:03;;;;;;;11.80;7.27;;;;;;;-0.55;59.04;95692.44;4861324;29;20262;-79
2022/03/11 05:08:28;;;;;;;13.83;7.97;;;;;;;-0.57;59.67;95695.06;4876501;29;20232;-77
2022/03/11 05:10:53;;;;;;;13.87;7.87;;;;;;;-0.66;59.71;95694.69;4860996;29;20320;-79
2022/03/11 05:13:18;;;;;;;12.07;7.53;;;;;;;-0.72;59.66;95693.28;4844083;29;20226;-78
2022/03/11 05:15:44;;;;;;;11.43;7.90;;;;;;;-0.65;59.55;95693.78;4903389;29;20597;-79
2022/03/11 05:18:11;;;;;;;9.73;7.50;;;;;;;-0.66;59.32;95694.69;4917219;29;20195;-78
2022/03/11 05:20:36;;;;;;;13.40;7.93;;;;;;;-0.62;59.50;95688.53;4917685;29;20688;-79
2022/03/11 05:23:01;;;;;;;12.60;7.90;;;;;;;-0.70;58.92;95696.59;4916691;29;20246;-78
2022/03/11 05:25:27;;;;;;;11.17;7.03;;;;;;;-0.70;59.33;95688.94;4916932;29;20196;-79
2022/03/11 05:27:52;;;;;;;13.57;7.87;;;;;;;-0.70;59.37;95690.66;4916888;29;20201;-78
2022/03/11 05:30:17;;;;;;;14.00;8.40;;;;;;;-0.82;59.49;95691.25;4931952;29;20199;-79
2022/03/11 05:32:44;;;;;;;13.83;8.43;;;;;;;-0.74;59.29;95689.97;4934207;29;20191;-79
2022/03/11 05:35:10;;;;;;;12.67;7.50;;;;;;;-0.78;59.98;95690.22;4934295;29;20254;-79
2022/03/11 05:37:36;;;;;;;11.43;7.93;;;;;;;-0.88;60.15;95687.31;4934595;29;20182;-79
2022/03/11 05:40:02;;;;;;;11.30;7.70;;;;;;;-0.77;60.27;95694.41;4936691;29;20296;-79
2022/03/11 05:42:27;;;;;;;15.47;9.50;;;;;;;-0.79;60.63;95698.78;4937805;29;20199;-78
2022/03/11 05:44:52;;;;;;;14.37;8.43;;;;;;;-0.85;60.35;95697.34;4934182;29;20616;-79
2022/03/11 05:47:18;;;;;;;13.97;8.23;;;;;;;-0.86;61.12;95700.78;4938964;29;20274;-79
2022/03/11 05:49:43;;;;;;;12.93;8.60;;;;;;;-0.91;60.77;95701.00;4937568;29;20218;-78
2022/03/11 05:52:08;;;;;;;11.10;7.87;;;;;;;-0.88;61.26;95695.78;4936841;29;20187;-78
2022/03/11 05:54:34;;;;;;;13.57;7.83;;;;;;;-0.88;61.37;95694.94;4936482;29;20206;-79
2022/03/11 05:57:00;;;;;;;12.67;8.10;;;;;;;-0.90;61.35;95701.81;4937256;29;20186;-79
2022/03/11 05:59:26;;;;;;;13.17;8.37;;;;;;;-0.92;61.08;95704.44;4938575;29;20635;-79
2022/03/11 06:01:51;;;;;;;11.73;9.10;;;;;;;-0.92;61.14;95701.06;4938676;29;20287;-78
2022/03/11 06:04:16;;;;;;;15.50;8.70;;;;;;;-0.91;61.70;95693.34;4942987;29;20194;-79
2022/03/11 06:06:42;;;;;;;13.07;8.47;;;;;;;-0.82;62.07;95701.44;4949992;28;20206;-79
2022/03/11 06:09:08;;;;;;;14.03;9.07;;;;;;;-0.77;61.87;95702.06;4956076;28;20245;-79
2022/03/11 06:11:36;;;;;;;11.73;8.33;;;;;;;-0.77;61.53;95717.38;4953460;28;20267;-79
2022/03/11 06:14:02;;;;;;;12.90;8.13;;;;;;;-0.75;61.39;95708.72;4947945;28;20245;-78
2022/03/11 06:16:27;;;;;;;14.80;8.63;;;;;;;-0.67;61.13;95705.81;4944686;28;20207;-79
2022/03/11 06:18:53;;;;;;;13.20;9.10;;;;;;;-0.61;60.98;95701.22;4950932;29;20206;-79
2022/03/11 06:21:18;;;;;;;14.53;8.60;;;;;;;-0.59;61.35;95703.72;4939365;29;20186;-78
2022/03/11 06:23:43;;;;;;;16.33;9.07;;;;;;;-0.59;60.84;95701.16;4948915;28;20218;-78
2022/03/11 06:26:09;;;;;;;14.77;8.80;;;;;;;-0.64;60.82;95706.47;4945070;28;20195;-79
2022/03/11 06:28:34;;;;;;;13.73;8.43;;;;;;;-0.57;60.54;95704.44;4949465;28;20190;-78
2022/03/11 06:30:59;;;;;;;14.77;8.73;;;;;;;-0.58;60.64;95700.25;4938596;29;20192;-78
2022/03/11 06:33:25;;;;;;;14.10;8.83;;;;;;;-0.51;60.61;95705.88;4942114;29;20624;-78
2022/03/11 06:35:51;;;;;;;13.27;8.87;;;;;;;-0.45;60.55;95708.91;4949519;28;20209;-78
2022/03/11 06:38:16;;;;;;;11.93;7.90;;;;;;;-0.45;60.26;95701.28;4956005;29;20186;-78
2022/03/11 06:40:42;;;;;;;14.17;8.37;;;;;;;-0.40;60.27;95704.44;4953685;29;20194;-78
2022/03/11 06:43:07;;;;;;;12.23;8.37;;;;;;;-0.33;59.99;95704.94;4940760;29;20687;-79
2022/03/11 06:45:33;;;;;;;13.57;8.43;;;;;;;-0.23;59.84;95700.19;4948760;29;20557;-80
2022/03/11 06:47:58;;;;;;;12.17;7.80;;;;;;;-0.15;59.23;95698.06;4947566;29;20237;-78
2022/03/11 06:50:23;;;;;;;10.63;7.73;;;;;;;-0.10;58.99;95694.38;4956513;28;20564;-79
2022/03/11 06:52:49;;;;;;;12.53;7.63;;;;;;;0.01;59.07;95690.44;4939157;28;20192;-78
2022/03/11 06:55:14;;;;;;;15.30;7.57;;;;;;;0.06;58.19;95694.41;4967560;28;20209;-79
2022/03/11 06:57:39;;;;;;;13.10;8.23;;;;;;;0.01;58.41;95691.28;4938149;29;20183;-79
2022/03/11 07:00:06;;;;;;;9.77;7.20;;;;;;;0.16;58.27;95705.78;4954853;29;20191;-78
2022/03/11 07:02:31;;;;;;;10.47;7.77;;;;;;;0.17;58.20;95707.41;4938721;29;20418;-79
2022/03/11 07:04:57;;;;;;;13.27;8.20;;;;;;;0.23;57.93;95704.53;4952181;28;20219;-78
2022/03/11 07:07:22;;;;;;;12.03;7.87;;;;;;;0.31;57.49;95713.53;4942249;29;20706;-79
2022/03/11 07:09:47;;;;;;;10.80;7.30;;;;;;;0.36;57.35;95704.75;4953652;28;20188;-79
2022/03/11 07:12:13;;;;;;;13.97;7.83;;;;;;;0.47;56.94;95712.66;4950078;28;20190;-79
2022/03/11 07:14:38;;;;;;;11.97;7.33;;;;;;;0.59;56.10;95716.25;4938912;29;20302;-78
2022/03/11 07:17:06;;;;;;;12.10;7.50;;;;;;;0.73;55.85;95718.91;4953775;29;20211;-79
2022/03/11 07:19:33;;;;;;;11.13;7.90;;;;;;;0.84;55.47;95708.09;4937045;29;20195;-79
2022/03/11 07:22:00;;;;;;;13.50;8.27;;;;;;;0.87;55.10;95707.91;4937433;29;20187;-79
2022/03/11 07:24:26;;;;;;;13.07;8.23;;;;;;;0.95;54.89;95712.59;4953356;28;20208;-79
2022/03/11 07:26:51;;;;;;;12.23;7.40;;;;;;;1.07;54.61;95706.81;4942034;29;20267;-78
2022/03/11 07:29:17;;;;;;;11.10;7.07;;;;;;;1.08;54.46;95708.47;4949609;29;20178;-79
2022/03/11 07:31:42;;;;;;;12.07;7.60;;;;;;;1.21;54.08;95699.16;4951168;29;20185;-79
2022/03/11 07:34:07;;;;;;;11.73;7.77;;;;;;;1.30;53.76;95702.94;4953015;29;20218;-78
2022/03/11 07:36:34;;;;;;;16.63;8.17;;;;;;;1.41;53.56;95708.25;4948258;28;20185;-79
2022/03/11 07:39:01;;;;;;;11.57;7.67;;;;;;;1.54;53.06;95710.94;4951187;28;20202;-79
2022/03/11 07:41:26;;;;;;;14.17;7.57;;;;;;;1.65;52.60;95713.69;4940597;29;20189;-78
2022/03/11 07:43:52;;;;;;;13.40;7.50;;;;;;;1.72;52.61;95704.75;4945527;28;20208;-79
2022/03/11 07:46:17;;;;;;;13.07;7.90;;;;;;;1.78;52.66;95711.25;4942222;29;20216;-79
2022/03/11 07:48:43;;;;;;;12.93;7.00;;;;;;;1.90;52.37;95708.78;4951232;28;20220;-78
2022/03/11 07:51:08;;;;;;;11.50;7.03;;;;;;;2.02;51.93;95707.22;4938966;29;20217;-78
2022/03/11 07:53:34;;;;;;;12.40;7.57;;;;;;;2.10;51.92;95704.19;4935443;29;20656;-79
2022/03/11 07:56:00;;;;;;;13.03;7.97;;;;;;;2.20;51.40;95702.72;4950435;28;20256;-78
2022/03/11 07:58:25;;;;;;;12.00;8.33;;;;;;;2.25;51.41;95709.22;4936803;29;20181;-80
2022/03/11 08:00:52;;;;;;;15.07;7.87;;;;;;;2.31;51.46;95702.91;4937976;29;20228;-79
2022/03/11 08:03:17;;;;;;;14.80;8.10;;;;;;;2.38;51.73;95703.34;4948754;29;20643;-80
2022/03/11 08:05:43;;;;;;;11.10;7.50;;;;;;;2.48;51.39;95705.28;4943813;28;20194;-80
2022/03/11 08:08:08;;;;;;;11.77;8.20;;;;;;;2.61;51.18;95696.81;4952392;28;20250;-79
2022/03/11 08:10:36;;;;;;;11.93;8.03;;;;;;;2.64;50.86;95699.16;4938669;29;20200;-79
2022/03/11 08:13:01;;;;;;;14.00;8.13;;;;;;;2.77;50.62;95708.59;4953642;29;20210;-79
2022/03/11 08:15:27;;;;;;;10.40;7.43;;;;;;;2.92;50.77;95699.09;4951916;28;20534;-79
2022/03/11 08:17:52;;;;;;;12.07;7.30;;;;;;;3.01;50.54;95706.22;4925687;29;20556;-79
2022/03/11 08:20:18;;;;;;;11.97;7.53;;;;;;;3.25;49.92;95701.22;4949286;29;20712;-80
2022/03/11 08:22:45;;;;;;;12.50;7.53;;;;;;;3.31;49.10;95707.72;4954346;29;20185;-80
2022/03/11 08:25:11;;;;;;;10.80;7.67;;;;;;;3.41;49.17;95706.19;4944053;29;20192;-80
2022/03/11 08:27:37;;;;;;;13.97;7.97;;;;;;;3.57;49.14;95701.72;4955799;28;20205;-79
2022/03/11 08:30:07;;;;;;;12.17;8.33;;;;;;;3.71;48.26;95705.94;4941521;29;20194;-80
2022/03/11 08:32:33;;;;;;;12.90;7.70;;;;;;;3.76;48.65;95703.88;4933540;28;20193;-79
2022/03/11 08:34:58;;;;;;;11.67;8.63;;;;;;;3.90;48.17;95692.69;4937693;29;20645;-80
2022/03/11 08:37:24;;;;;;;12.57;7.83;;;;;;;3.97;48.24;95701.59;4932659;29;20193;-80
2022/03/11 08:39:49;;;;;;;10.70;7.23;;;;;;;4.10;47.41;95697.28;4935850;29;20189;-80
2022/03/11 08:42:15;;;;;;;15.50;8.37;;;;;;;4.22;47.24;95693.03;4944100;29;20189;-80
2022/03/11 08:44:40;;;;;;;13.07;7.90;;;;;;;4.31;47.21;95692.41;4937632;29;20206;-80
2022/03/11 08:47:05;;;;;;;11.10;7.83;;;;;;;4.45;47.56;95694.84;4952736;28;20206;-80
2022/03/11 08:49:31;;;;;;;12.30;8.60;;;;;;;4.59;47.42;95699.03;4940606;29;20190;-80
2022/03/11 08:51:56;;;;;;;10.43;7.77;;;;;;;4.68;47.37;95700.13;4944786;29;20220;-79
2022/03/11 08:54:21;;;;;;;12.53;9.00;;;;;;;4.79;47.11;95697.66;4942532;29;20594;-80
2022/03/11 08:56:47;;;;;;;11.43;7.40;;;;;;;4.92;47.25;95693.25;4949410;29;20241;-81
2022/03/11 08:59:12;;;;;;;11.33;8.20;;;;;;;4.93;46.07;95700.03;4935760;29;20211;-80
2022/03/11 09:01:38;;;;;;;12.83;8.00;;;;;;;4.98;45.68;95699.72;4942188;29;20193;-78
2022/03/11 09:04:03;;;;;;;11.97;7.87;;;;;;;5.02;45.40;95698.56;4943300;28;20227;-78
2022/03/11 09:06:30;;;;;;;10.70;7.23;;;;;;;5.10;44.74;95697.09;4965009;28;20684;-81
2022/03/11 09:08:55;;;;;;;12.50;8.30;;;;;;;5.09;44.79;95702.34;4944028;29;20211;-80
2022/03/11 09:11:21;;;;;;;9.27;7.03;;;;;;;5.22;44.24;95690.25;4947540;29;20186;-81
2022/03/11 09:13:47;;;;;;;12.37;7.50;;;;;;;5.36;44.23;95700.34;4943283;29;20268;-80
2022/03/11 09:16:13;;;;;;;11.37;6.80;;;;;;;5.51;44.43;95689.84;4952735;28;20192;-85
2022/03/11 09:18:38;;;;;;;12.77;7.90;;;;;;;5.57;43.50;95700.53;4937118;28;20185;-81
2022/03/11 09:21:04;;;;;;;12.43;7.03;;;;;;;5.70;43.21;95695.28;4938506;29;20240;-79
2022/03/11 09:23:29;;;;;;;12.23;8.07;;;;;;;5.79;43.37;95692.03;4948861;29;20205;-79
2022/03/11 09:25:55;;;;;;;12.03;8.17;;;;;;;5.93;43.17;95694.44;4946820;29;20264;-78
2022/03/11 09:28:20;;;;;;;10.87;8.10;;;;;;;5.93;42.35;95676.38;4954183;29;20200;-78
2022/03/11 09:30:46;;;;;;;12.73;8.20;;;;;;;5.94;42.39;95680.59;4942258;29;20268;-77
2022/03/11 09:33:11;;;;;;;10.00;7.37;;;;;;;5.96;42.01;95678.72;4950189;28;20237;-79
2022/03/11 09:35:36;;;;;;;10.40;7.97;;;;;;;6.11;42.35;95676.75;4943439;29;20192;-79
2022/03/11 09:38:02;;;;;;;16.10;7.90;;;;;;;6.27;42.20;95684.09;4954199;29;20197;-77
2022/03/11 09:40:27;;;;;;;13.90;7.77;;;;;;;6.40;42.36;95687.41;4954244;28;20725;-78
2022/03/11 09:42:52;;;;;;;11.73;7.50;;;;;;;6.51;42.06;95691.72;4943616;29;20256;-77
2022/03/11 09:45:19;;;;;;;10.17;7.97;;;;;;;6.59;42.03;95688.53;4941109;29;20223;-79
2022/03/11 09:47:45;;;;;;;12.93;8.03;;;;;;;6.77;42.01;95689.69;4921577;29;20280;-77
2022/03/11 09:50:10;;;;;;;9.67;7.40;;;;;;;6.89;41.67;95693.03;4931972;29;20773;-79
2022/03/11 09:52:35;;;;;;;9.93;7.07;;;;;;;7.00;41.53;95688.69;4939723;29;20194;-77
2022/03/11 09:55:01;;;;;;;10.93;7.20;;;;;;;7.09;41.60;95694.88;4951640;29;20190;-80
2022/03/11 09:57:27;;;;;;;12.03;8.23;;;;;;;7.01;41.71;95690.31;4936761;29;20217;-80
2022/03/11 09:59:52;;;;;;;12.30;8.00;;;;;;;7.14;41.09;95679.81;4949169;28;20720;-79
2022/03/11 10:02:18;;;;;;;15.07;8.90;;;;;;;7.17;40.43;95687.34;4953999;29;20205;-77
2022/03/11 10:04:51;;;;;;;19.87;9.10;;;;;;;7.30;40.27;95685.41;4948698;29;20209;-78
2022/03/11 10:07:30;;;;;;;14.10;8.50;;;;;;;7.44;39.84;95691.22;4929296;29;20204;-79
2022/03/11 10:09:57;;;;;;;12.97;8.17;;;;;;;7.54;40.36;95690.34;4945908;29;20248;-77
2022/03/11 10:12:26;;;;;;;13.20;8.17;;;;;;;7.63;39.99;95687.00;4945750;28;20201;-79
2022/03/11 10:15:00;;;;;;;15.63;8.47;;;;;;;7.73;40.08;95694.00;4940650;28;20777;-78
2022/03/11 10:17:27;;;;;;;13.77;8.40;;;;;;;7.74;40.48;95698.22;4919578;29;20201;-80
2022/03/11 10:20:02;;;;;;;12.33;8.60;;;;;;;7.83;39.68;95694.88;4945120;29;20185;-77
2022/03/11 10:22:28;;;;;;;10.80;7.43;;;;;;;7.89;39.72;95687.44;4939428;29;20189;-79
2022/03/11 10:24:55;;;;;;;12.13;8.50;;;;;;;8.01;40.85;95690.75;4944704;28;20297;-79
2022/03/11 10:27:23;;;;;;;14.67;9.00;;;;;;;8.05;40.42;95679.22;4949403;28;20197;-79
2022/03/11 10:29:49;;;;;;;11.63;9.33;;;;;;;8.23;39.57;95687.19;4944826;28;20256;-79
2022/03/11 10:32:21;;;;;;;12.83;8.80;;;;;;;8.18;40.04;95681.56;4940240;29;20186;-79
2022/03/11 10:34:46;;;;;;;12.93;8.90;;;;;;;8.30;39.54;95675.34;4925718;29;20245;-79
2022/03/11 10:37:12;;;;;;;12.37;9.53;;;;;;;8.43;40.86;95670.81;4952924;29;20181;-80
2022/03/11 10:39:41;;;;;;;15.00;10.33;;;;;;;8.52;40.60;95682.16;4946162;29;20182;-77
2022/03/11 10:42:16;;;;;;;17.90;11.97;;;;;;;8.56;40.69;95682.69;4946469;29;20185;-78
2022/03/11 10:44:57;;;;;;;15.13;11.53;;;;;;;8.54;40.38;95684.59;4937976;29;20240;-78
2022/03/11 10:47:24;;;;;;;16.67;11.73;;;;;;;8.59;40.70;95677.28;4952457;28;20204;-80
2022/03/11 10:49:51;;;;;;;15.37;12.23;;;;;;;8.65;40.94;95674.13;4928641;29;20280;-79
2022/03/11 10:52:37;;;;;;;16.90;12.00;;;;;;;8.59;40.95;95680.69;4947535;29;20653;-80
2022/03/11 10:55:23;;;;;;;15.93;12.27;;;;;;;8.48;40.83;95691.97;4939391;29;20184;-78
2022/03/11 10:57:51;;;;;;;19.30;12.27;;;;;;;8.49;41.38;95691.00;4955503;28;20208;-79
2022/03/11 11:00:17;;;;;;;17.07;12.57;;;;;;;8.65;41.12;95684.50;4949670;28;20188;-79
2022/03/11 11:02:44;;;;;;;17.53;12.17;;;;;;;8.72;40.74;95683.84;4950942;28;20189;-79
2022/03/11 11:05:11;;;;;;;15.80;12.70;;;;;;;8.76;40.39;95679.22;4941803;29;20224;-80
2022/03/11 11:07:36;;;;;;;21.87;13.23;;;;;;;8.74;40.19;95678.50;4944121;29;20629;-77
2022/03/11 11:10:02;;;;;;;15.93;12.00;;;;;;;8.77;40.39;95684.28;4947500;29;20201;-77
2022/03/11 11:12:28;;;;;;;18.30;13.07;;;;;;;8.87;41.03;95681.69;4935187;29;20678;-77
2022/03/11 11:14:53;;;;;;;17.10;12.30;;;;;;;9.00;39.69;95679.66;4946794;29;20299;-78
2022/03/11 11:17:19;;;;;;;16.83;12.27;;;;;;;9.14;40.27;95681.03;4931931;29;20582;-78
2022/03/11 11:19:46;;;;;;;18.20;12.70;;;;;;;9.21;40.03;95681.31;4942796;29;20677;-79
2022/03/11 11:22:12;;;;;;;20.30;12.37;;;;;;;9.24;39.70;95668.09;4945863;29;20540;-77
2022/03/11 11:24:39;;;;;;;16.07;12.43;;;;;;;9.17;39.27;95662.63;4938149;29;20260;-78
2022/03/11 11:27:05;;;;;;;19.50;13.80;;;;;;;9.09;40.16;95657.31;4933713;29;20607;-77
2022/03/11 11:29:32;;;;;;;16.63;12.17;;;;;;;9.20;38.91;95658.97;4943082;29;20237;-78
2022/03/11 11:31:59;;;;;;;17.07;12.27;;;;;;;9.30;39.72;95660.59;4941407;28;20189;-78
2022/03/11 11:34:31;;;;;;;18.27;12.47;;;;;;;9.42;39.14;95657.84;4935834;29;20264;-78
2022/03/11 11:36:58;;;;;;;18.60;12.53;;;;;;;9.44;39.09;95654.16;4932183;29;20192;-78
2022/03/11 11:39:25;;;;;;;19.00;12.67;;;;;;;9.54;38.55;95648.97;4943706;28;20674;-78
2022/03/11 11:41:55;;;;;;;16.93;13.07;;;;;;;9.57;38.67;95643.53;4939834;29;20196;-78
2022/03/11 11:44:31;;;;;;;18.00;12.37;;;;;;;9.63;38.53;95635.19;4928989;28;20217;-78
2022/03/11 11:47:12;;;;;;;17.07;12.87;;;;;;;9.78;38.77;95632.97;4926434;29;20215;-78
2022/03/11 11:49:48;;;;;;;16.60;12.90;;;;;;;9.85;38.93;95629.66;4944611;29;20269;-79
2022/03/11 11:52:29;;;;;;;17.03;13.90;;;;;;;9.94;38.04;95628.81;4930046;29;20553;-78
2022/03/11 11:55:13;;;;;;;18.33;13.60;;;;;;;9.98;38.23;95633.72;4936771;28;20631;-78
2022/03/11 11:57:38;;;;;;;18.50;13.07;;;;;;;10.04;38.38;95636.56;4951418;29;20681;-79
2022/03/11 12:00:27;;;;;;;18.37;13.20;;;;;;;10.20;37.40;95633.38;4944387;29;20178;-79
2022/03/11 12:02:52;;;;;;;17.03;12.87;;;;;;;10.17;36.44;95623.28;4935923;29;20197;-79
2022/03/11 12:05:43;;;;;;;16.50;12.03;;;;;;;10.19;37.06;95622.16;4944492;29;20190;-78
2022/03/11 12:08:10;;;;;;;18.13;12.77;;;;;;;10.16;37.28;95619.06;4939120;29;20178;-79
2022/03/11 12:10:49;;;;;;;16.97;13.07;;;;;;;10.18;36.20;95611.94;4948814;28;20594;-78
2022/03/11 12:13:31;;;;;;;16.73;12.13;;;;;;;10.27;36.33;95608.50;4936932;29;20248;-78
2022/03/11 12:15:56;;;;;;;16.73;12.50;;;;;;;10.34;36.25;95594.00;4945177;29;20185;-80
2022/03/11 12:18:54;;;;;;;18.87;13.00;;;;;;;10.33;36.19;95594.94;4949940;28;20189;-77
2022/03/11 12:21:29;;;;;;;17.83;12.37;;;;;;;10.28;35.15;95588.56;4902747;29;20237;-79
2022/03/11 12:23:54;;;;;;;16.03;11.60;;;;;;;10.37;35.24;95588.50;4895566;29;20300;-78
2022/03/11 12:26:33;;;;;;;15.03;12.53;;;;;;;10.40;34.77;95593.41;4887372;29;20330;-78
2022/03/11 12:28:59;;;;;;;17.63;12.03;;;;;;;10.47;34.95;95586.69;4894924;29;20850;-79
2022/03/11 12:31:24;;;;;;;16.17;11.80;;;;;;;10.47;35.79;95589.28;4890400;29;20199;-78
2022/03/11 12:33:50;;;;;;;16.37;11.60;;;;;;;10.72;34.51;95579.16;4887296;29;20233;-78
2022/03/11 12:36:19;;;;;;;15.67;11.63;;;;;;;10.82;34.24;95574.69;4895178;29;20191;-78
2022/03/11 12:38:45;;;;;;;16.40;12.30;;;;;;;10.92;34.08;95579.81;4896669;29;20227;-79
2022/03/11 12:41:17;;;;;;;17.30;11.53;;;;;;;10.90;33.79;95569.56;4892212;29;20183;-78
2022/03/11 12:43:44;;;;;;;17.33;12.10;;;;;;;10.98;33.43;95568.81;4895329;29;20215;-78
2022/03/11 12:46:10;;;;;;;16.57;11.30;;;;;;;11.00;32.73;95565.09;4879395;29;20751;-78
2022/03/11 12:48:38;;;;;;;17.33;11.37;;;;;;;11.04;33.10;95558.66;4885833;29;20194;-77
2022/03/11 12:51:05;;;;;;;15.67;10.57;;;;;;;11.04;32.93;95565.63;4908998;29;20258;-77
2022/03/11 12:53:30;;;;;;;11.80;10.50;;;;;;;11.14;31.90;95555.97;4900154;29;20290;-78
2022/03/11 12:55:56;;;;;;;15.93;11.47;;;;;;;11.19;32.82;95558.91;4901071;29;20288;-78
2022/03/11 12:58:32;;;;;;;21.37;11.07;;;;;;;11.16;31.95;95555.81;4941988;29;20184;-80
2022/03/11 13:01:01;;;;;;;17.13;10.73;;;;;;;11.22;31.37;95555.19;4951604;29;20242;-79
2022/03/11 13:03:30;;;;;;;14.90;11.23;;;;;;;11.25;31.84;95557.50;4941879;29;20211;-80
2022/03/11 13:05:56;;;;;;;15.43;11.20;;;;;;;11.37;32.27;95548.47;4954160;28;20226;-79
2022/03/11 13:08:21;;;;;;;18.30;12.13;;;;;;;11.45;32.58;95552.94;4955441;28;20255;-78
2022/03/11 13:10:51;;;;;;;14.57;10.87;;;;;;;11.60;32.29;95554.81;4939406;29;20193;-79
2022/03/11 13:13:17;;;;;;;15.17;11.57;;;;;;;11.50;32.05;95548.09;4936577;29;20204;-78
2022/03/11 13:15:46;;;;;;;16.37;11.90;;;;;;;11.62;32.33;95539.06;4947244;29;20178;-79
2022/03/11 13:18:16;;;;;;;14.73;10.93;;;;;;;11.44;31.86;95533.91;4924773;29;20261;-79
2022/03/11 13:21:10;;;;;;;15.53;11.83;;;;;;;11.36;31.37;95526.06;4952510;29;20268;-79
2022/03/11 13:23:48;;;;;;;20.43;11.20;;;;;;;11.41;31.65;95525.63;4944311;29;20630;-78
2022/03/11 13:26:19;;;;;;;14.40;9.60;;;;;;;11.40;32.18;95527.41;4946554;28;20673;-77
2022/03/11 13:28:52;;;;;;;14.43;10.80;;;;;;;11.53;31.98;95524.38;4944628;29;20564;-78
2022/03/11 13:31:23;;;;;;;12.83;10.63;;;;;;;11.49;31.09;95528.25;4935964;29;20174;-80
2022/03/11 13:34:02;;;;;;;12.93;11.03;;;;;;;11.58;31.57;95530.75;4945099;28;20244;-79
2022/03/11 13:36:58;;;;;;;12.73;10.23;;;;;;;11.51;31.61;95526.31;4970188;28;20311;-79
2022/03/11 13:39:23;;;;;;;15.33;11.17;;;;;;;11.63;31.50;95525.88;4905955;29;20291;-78
2022/03/11 13:41:51;;;;;;;15.53;10.87;;;;;;;11.80;31.69;95518.22;4888906;29;20269;-79
2022/03/11 13:44:21;;;;;;;16.20;10.40;;;;;;;11.52;31.03;95515.75;4910485;29;20215;-79
2022/03/11 13:46:57;;;;;;;13.33;10.33;;;;;;;11.61;31.14;95514.03;4911398;29;20293;-78
2022/03/11 13:49:23;;;;;;;16.77;10.20;;;;;;;11.65;31.05;95502.31;4896831;29;20289;-79
2022/03/11 13:51:53;;;;;;;13.47;10.33;;;;;;;11.65;30.76;95517.94;4894717;29;20330;-78
2022/03/11 13:54:29;;;;;;;15.60;10.27;;;;;;;11.75;30.33;95497.00;4896915;29;20211;-79
2022/03/11 13:56:59;;;;;;;13.33;10.60;;;;;;;11.71;30.95;95498.31;4881104;29;20194;-80
2022/03/11 13:59:28;;;;;;;15.47;10.17;;;;;;;11.70;30.55;95489.69;4903195;29;20703;-79
2022/03/11 14:01:54;;;;;;;15.00;10.50;;;;;;;11.72;30.23;95487.72;4889286;29;20273;-78
2022/03/11 14:04:21;;;;;;;14.17;10.10;;;;;;;11.66;30.88;95482.31;4894251;29;20360;-80
2022/03/11 14:06:47;;;;;;;14.07;10.10;;;;;;;11.68;30.79;95475.22;4895626;29;20750;-80
2022/03/11 14:09:13;;;;;;;16.53;10.20;;;;;;;11.66;30.08;95472.78;4885466;29;20199;-80
2022/03/11 14:11:38;;;;;;;15.63;10.07;;;;;;;11.70;29.88;95474.06;4891957;29;20571;-79